Time;durP1;ratioP1;P1;durP2;ratioP2;P2;SDS_P1;SDS_P2;PMS_P1;PMS_P2;Temp;Humidity;BMP_temperature;BMP_pressure;BME280_temperature;BME280_humidity;BME280_pressure;Samples;Min_cycle;Max_cycle;Signal;HPM_P1;HPM_P2
2022/01/19 00:00:47;;;;;;;;;;;4.40;85.80;;;;;;4990967;28;20418;-84
2022/01/19 00:03:16;;;;;;;;;;;4.30;85.80;;;;;;4987383;28;19914;-83
2022/01/19 00:05:43;;;;;;;;;;;4.30;85.90;;;;;;4998531;28;19914;-83
2022/01/19 00:08:15;;;;;;;;;;;4.30;85.80;;;;;;5001587;28;19921;-85
2022/01/19 00:10:41;;;;;;;;;;;4.20;86.20;;;;;;4993333;28;20015;-84
2022/01/19 00:13:06;;;;;;;;;;;4.40;86.00;;;;;;4995496;28;20280;-83
2022/01/19 00:15:32;;;;;;;;;;;4.30;85.90;;;;;;5011022;28;19918;-84
2022/01/19 00:17:59;;;;;;;;;;;4.20;86.00;;;;;;4994467;28;19914;-83
2022/01/19 00:20:25;;;;;;;;;;;4.10;85.90;;;;;;4989516;28;20007;-84
2022/01/19 00:22:51;;;;;;;;;;;4.20;86.10;;;;;;4996236;28;20005;-84
2022/01/19 00:25:17;;;;;;;;;;;4.10;86.20;;;;;;5002017;28;20371;-83
2022/01/19 00:27:45;;;;;;;;;;;4.10;86.10;;;;;;4991963;28;19918;-83
2022/01/19 00:30:11;;;;;;;;;;;4.10;85.80;;;;;;5005532;28;20491;-83
2022/01/19 00:32:37;;;;;;;;;;;4.00;85.90;;;;;;4992071;28;19914;-83
2022/01/19 00:35:03;;;;;;;;;;;3.90;86.10;;;;;;4995779;28;19921;-83
2022/01/19 00:37:29;;;;;;;;;;;3.90;85.70;;;;;;5008893;28;19921;-83
2022/01/19 00:39:57;;;;;;;;;;;3.80;85.50;;;;;;4992975;28;19914;-82
2022/01/19 00:42:25;;;;;;;;;;;3.80;86.00;;;;;;4992815;28;20261;-84
2022/01/19 00:44:50;;;;;;;;;;;3.70;86.00;;;;;;4992225;28;19976;-83
2022/01/19 00:47:16;;;;;;;;;;;3.60;85.90;;;;;;4991946;28;19922;-83
2022/01/19 00:49:43;;;;;;;;;;;3.60;85.70;;;;;;4991587;28;19914;-83
2022/01/19 00:52:09;;;;;;;;;;;3.60;86.20;;;;;;4992484;28;20447;-83
2022/01/19 00:54:35;;;;;;;;;;;3.50;85.90;;;;;;4991181;28;19945;-84
2022/01/19 00:57:00;;;;;;;;;;;3.50;86.10;;;;;;4991794;28;19921;-81
2022/01/19 00:59:26;;;;;;;;;;;3.50;86.00;;;;;;4989537;28;20313;-83
2022/01/19 01:01:51;;;;;;;;;;;3.50;85.80;;;;;;4991768;28;19918;-83
2022/01/19 01:04:17;;;;;;;;;;;3.40;85.90;;;;;;4992409;28;20040;-83
2022/01/19 01:06:42;;;;;;;;;;;3.40;85.80;;;;;;4995177;28;19918;-82
2022/01/19 01:09:08;;;;;;;;;;;3.20;85.70;;;;;;5007789;28;19973;-81
2022/01/19 01:11:36;;;;;;;;;;;3.20;86.10;;;;;;5007019;28;20001;-82
2022/01/19 01:16:35;;;;;;;;;;;3.30;85.90;;;;;;4995947;28;20392;-84
2022/01/19 01:19:01;;;;;;;;;;;3.10;86.10;;;;;;4993173;28;19914;-84
2022/01/19 01:21:26;;;;;;;;;;;3.20;86.30;;;;;;4994203;28;20340;-84
2022/01/19 01:23:52;;;;;;;;;;;3.30;85.90;;;;;;4993847;28;19929;-84
2022/01/19 01:26:17;;;;;;;;;;;3.20;85.70;;;;;;4994285;28;19925;-84
2022/01/19 01:28:43;;;;;;;;;;;3.10;85.60;;;;;;4993324;28;19921;-83
2022/01/19 01:31:09;;;;;;;;;;;3.20;85.60;;;;;;4993000;28;19913;-83
2022/01/19 01:33:35;;;;;;;;;;;3.10;85.70;;;;;;4986734;28;19990;-84
2022/01/19 01:36:01;;;;;;;;;;;3.00;85.60;;;;;;4994591;28;19913;-83
2022/01/19 01:38:27;;;;;;;;;;;2.90;85.70;;;;;;4988303;28;20261;-83
2022/01/19 01:40:52;;;;;;;;;;;2.90;85.70;;;;;;4993723;28;19960;-83
2022/01/19 01:43:18;;;;;;;;;;;2.80;86.10;;;;;;4984133;28;19941;-84
2022/01/19 01:45:46;;;;;;;;;;;2.80;86.30;;;;;;5008637;28;20049;-83
2022/01/19 01:48:18;;;;;;;;;;;2.80;86.70;;;;;;4993402;28;20333;-84
2022/01/19 01:53:29;;;;;;;;;;;3.00;87.00;;;;;;5009492;28;19928;-84
2022/01/19 01:55:57;;;;;;;;;;;3.00;87.20;;;;;;4998362;28;19948;-83
2022/01/19 01:58:23;;;;;;;;;;;3.10;87.40;;;;;;4992986;28;19960;-84
2022/01/19 02:00:48;;;;;;;;;;;3.10;87.20;;;;;;4991976;28;19914;-83
2022/01/19 02:03:14;;;;;;;;;;;3.10;87.10;;;;;;5005799;28;20039;-82
2022/01/19 02:05:53;;;;;;;;;;;3.10;87.10;;;;;;4993849;28;19936;-83
2022/01/19 02:08:22;;;;;;;;;;;3.10;87.30;;;;;;4989672;28;20307;-83
2022/01/19 02:21:39;;;;;;;;;;;3.10;86.90;;;;;;4992623;28;20009;-82
2022/01/19 02:24:08;;;;;;;;;;;3.10;87.00;;;;;;4985826;28;20446;-83
2022/01/19 02:26:50;;;;;;;;;;;3.10;87.20;;;;;;5006592;28;19918;-83
2022/01/19 02:29:46;;;;;;;;;;;3.10;87.40;;;;;;4990759;28;19920;-84
2022/01/19 02:40:16;;;;;;;;;;;3.00;87.30;;;;;;4991701;28;20060;-83
2022/01/19 02:50:58;;;;;;;;;;;3.10;87.80;;;;;;5003246;28;20419;-84
2022/01/19 02:53:24;;;;;;;;;;;3.20;88.00;;;;;;5008472;28;19917;-85
2022/01/19 02:55:49;;;;;;;;;;;3.40;88.10;;;;;;4990466;28;19933;-83
2022/01/19 02:58:18;;;;;;;;;;;3.50;88.00;;;;;;4989233;28;19953;-84
2022/01/19 03:08:43;;;;;;;;;;;3.70;87.10;;;;;;4993609;28;19980;-83
2022/01/19 03:09:13;;;;;;;;;;;3.80;86.70;;;;;;4996760;28;19948;-83
2022/01/19 03:11:39;;;;;;;;;;;3.70;86.40;;;;;;5000564;28;19917;-84
2022/01/19 03:14:07;;;;;;;;;;;3.60;86.10;;;;;;5007138;28;19913;-84
2022/01/19 03:16:33;;;;;;;;;;;3.60;86.30;;;;;;4991009;28;20369;-84
2022/01/19 03:18:58;;;;;;;;;;;3.70;86.40;;;;;;4997167;28;19921;-83
2022/01/19 03:21:24;;;;;;;;;;;3.60;86.10;;;;;;4991036;28;19914;-83
2022/01/19 03:23:49;;;;;;;;;;;3.60;86.30;;;;;;4989875;28;20368;-84
2022/01/19 03:26:15;;;;;;;;;;;3.70;86.40;;;;;;4991675;28;20323;-84
2022/01/19 03:28:40;;;;;;;;;;;3.80;86.60;;;;;;5007535;28;19925;-83
2022/01/19 03:31:06;;;;;;;;;;;4.00;86.50;;;;;;4991542;28;19930;-84
2022/01/19 03:33:31;;;;;;;;;;;4.10;85.90;;;;;;5000309;28;19937;-84
2022/01/19 03:35:57;;;;;;;;;;;4.30;85.70;;;;;;4991180;28;19914;-84
2022/01/19 03:38:22;;;;;;;;;;;4.50;85.30;;;;;;4993169;28;19913;-84
2022/01/19 03:40:49;;;;;;;;;;;4.50;84.80;;;;;;5005924;28;20005;-84
2022/01/19 03:43:14;;;;;;;;;;;4.50;84.60;;;;;;4993492;28;20478;-84
2022/01/19 03:45:50;;;;;;;;;;;4.60;84.70;;;;;;4995521;28;20029;-83
2022/01/19 03:50:44;;;;;;;;;;;4.30;84.00;;;;;;4989646;28;19926;-82
2022/01/19 03:53:09;;;;;;;;;;;4.30;84.50;;;;;;4989862;28;19918;-83
2022/01/19 03:55:35;;;;;;;;;;;4.40;84.60;;;;;;4988414;28;19924;-83
2022/01/19 03:58:00;;;;;;;;;;;4.40;84.50;;;;;;5008621;28;20021;-83
2022/01/19 04:00:26;;;;;;;;;;;4.50;84.70;;;;;;4993321;28;20415;-83
2022/01/19 04:02:51;;;;;;;;;;;4.40;84.70;;;;;;4993754;28;20246;-83
2022/01/19 04:05:23;;;;;;;;;;;4.40;84.80;;;;;;5007639;28;19932;-83
2022/01/19 04:07:49;;;;;;;;;;;4.30;84.40;;;;;;4993012;28;20222;-83
2022/01/19 04:10:15;;;;;;;;;;;4.40;84.70;;;;;;4992201;28;19984;-82
2022/01/19 04:12:45;;;;;;;;;;;4.50;84.70;;;;;;4988688;28;20305;-83
2022/01/19 04:15:12;;;;;;;;;;;4.60;84.00;;;;;;4993533;28;19914;-84
2022/01/19 04:17:42;;;;;;;;;;;4.60;84.10;;;;;;4991578;28;20451;-84
2022/01/19 04:20:08;;;;;;;;;;;4.50;84.50;;;;;;4991463;28;19953;-84
2022/01/19 04:22:33;;;;;;;;;;;4.60;84.40;;;;;;4992939;28;20293;-84
2022/01/19 04:24:59;;;;;;;;;;;4.60;84.40;;;;;;4993011;28;19914;-83
2022/01/19 04:27:32;;;;;;;;;;;4.60;84.60;;;;;;5012492;28;19981;-83
2022/01/19 04:30:10;;;;;;;;;;;4.60;84.90;;;;;;5010561;28;20238;-84
2022/01/19 04:32:50;;;;;;;;;;;4.60;84.80;;;;;;4996626;28;19929;-84
2022/01/19 04:35:21;;;;;;;;;;;4.60;84.70;;;;;;4997640;28;19914;-84
2022/01/19 04:48:58;;;;;;;;;;;5.00;83.00;;;;;;4993968;28;19965;-83
2022/01/19 05:02:28;;;;;;;;;;;4.80;83.80;;;;;;4988237;28;19928;-83
2022/01/19 05:05:09;;;;;;;;;;;4.90;83.50;;;;;;4991333;28;20020;-82
2022/01/19 05:15:22;;;;;;;;;;;4.70;84.10;;;;;;4992663;28;19924;-83
2022/01/19 05:17:47;;;;;;;;;;;4.60;84.00;;;;;;4993179;28;19921;-83
2022/01/19 05:20:13;;;;;;;;;;;4.70;83.90;;;;;;4990304;28;20400;-82
2022/01/19 05:22:38;;;;;;;;;;;4.80;83.60;;;;;;4990920;28;19918;-83
2022/01/19 05:25:04;;;;;;;;;;;4.80;83.90;;;;;;4991856;28;19914;-84
2022/01/19 05:27:30;;;;;;;;;;;4.90;83.60;;;;;;4992694;28;19918;-82
2022/01/19 05:29:56;;;;;;;;;;;4.90;83.80;;;;;;4990943;28;19913;-82
2022/01/19 05:32:22;;;;;;;;;;;4.90;83.70;;;;;;4992366;28;19917;-83
2022/01/19 05:34:48;;;;;;;;;;;4.90;83.50;;;;;;4996238;28;20073;-84
2022/01/19 05:37:13;;;;;;;;;;;4.90;83.40;;;;;;4991401;28;19922;-82
2022/01/19 05:39:39;;;;;;;;;;;4.90;83.60;;;;;;4992019;28;20408;-83
2022/01/19 05:42:04;;;;;;;;;;;4.90;83.00;;;;;;4991145;28;19913;-83
2022/01/19 05:44:30;;;;;;;;;;;4.90;82.60;;;;;;4997788;28;19914;-82
2022/01/19 05:46:55;;;;;;;;;;;4.70;83.30;;;;;;4998387;28;19918;-84
2022/01/19 05:49:22;;;;;;;;;;;4.80;83.30;;;;;;5003692;28;19921;-84
2022/01/19 05:51:48;;;;;;;;;;;4.80;82.80;;;;;;4999573;28;19918;-85
2022/01/19 05:54:13;;;;;;;;;;;4.60;82.60;;;;;;4997478;28;20255;-82
2022/01/19 05:56:39;;;;;;;;;;;4.80;82.30;;;;;;4990738;28;19918;-83
2022/01/19 05:59:04;;;;;;;;;;;4.80;82.00;;;;;;4990836;28;19914;-82
2022/01/19 06:01:30;;;;;;;;;;;4.60;82.40;;;;;;4989340;28;20440;-83
2022/01/19 06:03:55;;;;;;;;;;;4.70;82.60;;;;;;4984087;28;19936;-83
2022/01/19 06:06:21;;;;;;;;;;;4.70;82.40;;;;;;5016208;28;19914;-83
2022/01/19 06:08:58;;;;;;;;;;;4.70;82.60;;;;;;5012959;28;19909;-80
2022/01/19 06:11:24;;;;;;;;;;;4.70;82.20;;;;;;5010319;28;19960;-82
2022/01/19 06:13:49;;;;;;;;;;;4.60;82.30;;;;;;5009013;28;20450;-81
2022/01/19 06:16:15;;;;;;;;;;;4.60;82.50;;;;;;4991805;28;19922;-81
2022/01/19 06:18:42;;;;;;;;;;;4.60;82.40;;;;;;4992567;28;20009;-82
2022/01/19 06:21:08;;;;;;;;;;;4.60;82.40;;;;;;4992771;28;19914;-81
2022/01/19 06:23:36;;;;;;;;;;;4.60;82.20;;;;;;4990923;28;19921;-82
2022/01/19 06:26:01;;;;;;;;;;;4.70;81.70;;;;;;4995553;28;20416;-82
2022/01/19 06:28:26;;;;;;;;;;;4.60;82.20;;;;;;4994711;28;19964;-83
2022/01/19 06:30:52;;;;;;;;;;;4.80;81.50;;;;;;4988789;28;19918;-84
2022/01/19 06:33:17;;;;;;;;;;;4.60;81.80;;;;;;4992718;28;19961;-80
2022/01/19 06:35:43;;;;;;;;;;;4.60;81.70;;;;;;4987124;28;19917;-81
2022/01/19 06:38:08;;;;;;;;;;;4.70;81.70;;;;;;4991226;28;19961;-82
2022/01/19 06:40:34;;;;;;;;;;;4.80;81.70;;;;;;4994458;28;19925;-85
2022/01/19 06:42:59;;;;;;;;;;;4.70;81.50;;;;;;4991369;28;19925;-83
2022/01/19 06:45:26;;;;;;;;;;;4.70;82.10;;;;;;5006912;28;20455;-82
2022/01/19 06:47:51;;;;;;;;;;;4.80;82.00;;;;;;4992499;28;20539;-83
2022/01/19 06:50:20;;;;;;;;;;;4.90;81.90;;;;;;4993697;28;19913;-83
2022/01/19 06:52:46;;;;;;;;;;;5.00;81.20;;;;;;4995128;28;19914;-81
2022/01/19 06:55:12;;;;;;;;;;;4.90;81.30;;;;;;4994091;28;20458;-82
2022/01/19 06:57:37;;;;;;;;;;;4.90;81.60;;;;;;4993273;28;19917;-82
2022/01/19 07:00:03;;;;;;;;;;;4.90;81.80;;;;;;5007557;28;20264;-83
2022/01/19 07:02:29;;;;;;;;;;;5.00;81.60;;;;;;4993225;28;19956;-83
2022/01/19 07:04:54;;;;;;;;;;;5.00;81.80;;;;;;4993877;28;19909;-82
2022/01/19 07:07:20;;;;;;;;;;;5.00;81.40;;;;;;4991621;28;19926;-83
2022/01/19 07:09:46;;;;;;;;;;;5.00;81.40;;;;;;4988598;28;19914;-83
2022/01/19 07:12:11;;;;;;;;;;;4.90;81.20;;;;;;4981109;28;19914;-83
2022/01/19 07:14:37;;;;;;;;;;;5.00;81.30;;;;;;4993725;28;19948;-83
2022/01/19 07:17:03;;;;;;;;;;;4.90;81.50;;;;;;4995231;28;20296;-82
2022/01/19 07:19:28;;;;;;;;;;;4.90;81.80;;;;;;5000433;28;19984;-83
2022/01/19 07:21:57;;;;;;;;;;;5.00;81.70;;;;;;5004662;28;19918;-83
2022/01/19 07:24:25;;;;;;;;;;;5.10;81.90;;;;;;5013396;28;19945;-85
2022/01/19 07:26:58;;;;;;;;;;;5.10;81.20;;;;;;5001174;28;20380;-85
2022/01/19 07:36:29;;;;;;;;;;;;;;;;;;;;;
2022/01/19 07:39:09;;;;;;;;;;;5.00;81.10;;;;;;4998713;28;20012;-84
2022/01/19 07:41:59;;;;;;;;;;;;;;;;;;;;;
2022/01/19 07:44:46;;;;;;;;;;;;;;;;;;;;;
2022/01/19 07:47:31;;;;;;;;;;;;;;;;;;;;;
2022/01/19 07:53:58;;;;;;;;;;;5.00;80.30;;;;;;4999902;28;19985;-85
2022/01/19 07:56:24;;;;;;;;;;;5.00;80.50;;;;;;4990179;28;19913;-83
2022/01/19 07:58:57;;;;;;;;;;;5.10;80.50;;;;;;5011640;28;20449;-83
2022/01/19 08:01:30;;;;;;;;;;;5.00;80.20;;;;;;4995936;28;19916;-82
2022/01/19 08:04:04;;;;;;;;;;;5.10;80.60;;;;;;5009671;28;20455;-81
2022/01/19 08:06:32;;;;;;;;;;;5.10;80.30;;;;;;4994945;28;20369;-80
2022/01/19 08:12:20;;;;;;;;;;;5.10;80.50;;;;;;4997150;28;20376;-80
2022/01/19 08:14:58;;;;;;;;;;;5.20;80.00;;;;;;4993782;28;20303;-82
2022/01/19 08:18:02;;;;;;;;;;;;;;;;;;;;;
2022/01/19 08:21:01;;;;;;;;;;;5.10;80.10;;;;;;4956616;28;19920;-82
2022/01/19 08:23:58;;;;;;;;;;;5.20;79.80;;;;;;5008255;28;20032;-81
2022/01/19 08:26:26;;;;;;;;;;;5.20;79.60;;;;;;5014878;28;19921;-82
2022/01/19 08:28:52;;;;;;;;;;;5.30;79.60;;;;;;5012885;28;20396;-82
2022/01/19 08:31:17;;;;;;;;;;;5.30;79.10;;;;;;5013530;28;19913;-81
2022/01/19 08:33:53;;;;;;;;;;;5.30;79.00;;;;;;4995286;28;19914;-82
2022/01/19 08:36:47;;;;;;;;;;;5.30;79.00;;;;;;4978412;28;19922;-81
2022/01/19 08:42:30;;;;;;;;;;;5.30;78.80;;;;;;4975845;28;20004;-81
2022/01/19 08:45:04;;;;;;;;;;;5.30;78.60;;;;;;5005658;28;19980;-82
2022/01/19 08:47:50;;;;;;;;;;;5.40;78.00;;;;;;4990298;28;19918;-83
2022/01/19 08:53:53;;;;;;;;;;;5.30;78.30;;;;;;4988674;28;19926;-82
2022/01/19 09:02:49;;;;;;;;;;;5.30;78.70;;;;;;4995399;28;19913;-82
2022/01/19 09:05:27;;;;;;;;;;;5.30;79.10;;;;;;5012093;28;19914;-84
2022/01/19 09:08:27;;;;;;;;;;;5.30;78.70;;;;;;4984202;28;19930;-85
2022/01/19 09:14:01;;;;;;;;;;;5.30;79.00;;;;;;4952640;29;20001;-82
2022/01/19 09:16:27;;;;;;;;;;;5.30;79.20;;;;;;4989477;28;19922;-81
2022/01/19 09:18:58;;;;;;;;;;;5.30;79.10;;;;;;5011776;28;19929;-83
2022/01/19 09:21:49;;;;;;;;;;;5.20;79.30;;;;;;5004684;28;20009;-81
2022/01/19 09:24:30;;;;;;;;;;;5.20;79.30;;;;;;5003389;28;20360;-83
2022/01/19 09:27:08;;;;;;;;;;;5.10;79.90;;;;;;4982003;28;19926;-82
2022/01/19 09:29:38;;;;;;;;;;;5.10;79.40;;;;;;5005674;28;19922;-81
2022/01/19 09:32:08;;;;;;;;;;;5.10;79.40;;;;;;5002045;28;19924;-82
2022/01/19 09:34:39;;;;;;;;;;;5.10;79.40;;;;;;4995687;28;19972;-82
2022/01/19 09:37:14;;;;;;;;;;;5.10;79.30;;;;;;4994482;28;20004;-82
2022/01/19 09:39:42;;;;;;;;;;;5.00;79.20;;;;;;5001799;28;19924;-82
2022/01/19 09:42:11;;;;;;;;;;;5.00;79.50;;;;;;5007456;28;19924;-82
2022/01/19 09:44:37;;;;;;;;;;;5.00;79.80;;;;;;5026239;28;19922;-80
2022/01/19 09:47:06;;;;;;;;;;;5.00;79.80;;;;;;5002836;28;19935;-82
2022/01/19 09:49:34;;;;;;;;;;;5.00;79.60;;;;;;4998526;28;19953;-81
2022/01/19 09:52:00;;;;;;;;;;;5.00;79.20;;;;;;4997708;28;19914;-82
2022/01/19 09:54:34;;;;;;;;;;;5.10;79.20;;;;;;4994883;28;19914;-81
2022/01/19 09:57:08;;;;;;;;;;;5.00;79.60;;;;;;4994799;28;19957;-82
2022/01/19 10:03:01;;;;;;;;;;;5.00;79.50;;;;;;4995225;28;20051;-82
2022/01/19 10:06:02;;;;;;;;;;;5.10;79.10;;;;;;4988900;28;19964;-82
2022/01/19 10:18:13;;;;;;;;;;;5.10;79.00;;;;;;4992569;28;19921;-85
2022/01/19 10:21:00;;;;;;;;;;;;;;;;;;;;;
2022/01/19 10:26:40;;;;;;;;;;;5.10;78.90;;;;;;4962520;28;19924;-84
2022/01/19 10:29:16;;;;;;;;;;;5.00;79.40;;;;;;4991624;28;19918;-80
2022/01/19 10:32:09;;;;;;;;;;;5.20;78.80;;;;;;4991511;28;19937;-86
2022/01/19 10:34:45;;;;;;;;;;;5.30;78.90;;;;;;4996897;28;19922;-83
2022/01/19 10:37:31;;;;;;;;;;;5.40;78.50;;;;;;5011958;28;19913;-82
2022/01/19 10:40:02;;;;;;;;;;;5.50;78.10;;;;;;4993309;28;19914;-84
2022/01/19 10:42:56;;;;;;;;;;;5.30;78.20;;;;;;4995399;28;19914;-84
2022/01/19 10:48:55;;;;;;;;;;;5.40;78.40;;;;;;4992563;28;19932;-83
2022/01/19 10:51:39;;;;;;;;;;;5.50;77.70;;;;;;5001820;28;19953;-82
2022/01/19 10:54:17;;;;;;;;;;;5.60;78.20;;;;;;5005680;28;20257;-87
2022/01/19 10:56:54;;;;;;;;;;;;;;;;;;;;;
2022/01/19 10:59:55;;;;;;;;;;;5.50;77.60;;;;;;4982617;28;19920;-86
2022/01/19 11:02:37;;;;;;;;;;;5.50;77.40;;;;;;4996180;28;20276;-85
2022/01/19 11:05:50;;;;;;;;;;;5.60;77.70;;;;;;4991017;28;19988;-84
2022/01/19 11:08:17;;;;;;;;;;;5.60;77.50;;;;;;4992737;28;19917;-86
2022/01/19 11:10:47;;;;;;;;;;;5.60;77.40;;;;;;5010582;28;19905;-86
2022/01/19 11:13:14;;;;;;;;;;;5.60;77.30;;;;;;5015725;28;20280;-82
2022/01/19 11:15:42;;;;;;;;;;;5.60;77.50;;;;;;4991910;28;19949;-84
2022/01/19 11:18:08;;;;;;;;;;;5.70;77.90;;;;;;4988227;28;20278;-85
2022/01/19 11:20:40;;;;;;;;;;;5.70;76.90;;;;;;5003873;28;19925;-86
2022/01/19 11:23:20;;;;;;;;;;;5.70;77.30;;;;;;5013359;28;19918;-86
2022/01/19 11:26:07;;;;;;;;;;;5.70;77.70;;;;;;4997468;28;20211;-87
2022/01/19 11:28:34;;;;;;;;;;;5.80;77.30;;;;;;4983210;28;19929;-85
2022/01/19 11:31:02;;;;;;;;;;;5.70;77.20;;;;;;5014566;28;20276;-84
2022/01/19 11:33:28;;;;;;;;;;;5.70;77.60;;;;;;5017398;28;20004;-84
2022/01/19 11:36:05;;;;;;;;;;;5.80;77.00;;;;;;4997631;28;19937;-86
2022/01/19 11:38:32;;;;;;;;;;;5.70;77.80;;;;;;4997369;28;19913;-85
2022/01/19 11:40:59;;;;;;;;;;;5.80;77.50;;;;;;4999446;28;19913;-84
2022/01/19 11:43:34;;;;;;;;;;;5.80;77.00;;;;;;4996677;28;20499;-84
2022/01/19 11:46:00;;;;;;;;;;;5.80;77.00;;;;;;4984683;28;20265;-83
2022/01/19 11:48:35;;;;;;;;;;;5.80;76.60;;;;;;4996211;28;19918;-85
2022/01/19 11:51:30;;;;;;;;;;;5.70;76.90;;;;;;4999695;28;19913;-84
2022/01/19 11:54:12;;;;;;;;;;;5.80;76.80;;;;;;4988847;28;19920;-85
2022/01/19 11:57:02;;;;;;;;;;;5.80;76.50;;;;;;4998292;28;19976;-85
2022/01/19 11:59:30;;;;;;;;;;;5.80;76.60;;;;;;5000358;28;20007;-84
2022/01/19 12:02:17;;;;;;;;;;;5.80;77.00;;;;;;5000860;28;19914;-83
2022/01/19 12:04:45;;;;;;;;;;;5.80;77.40;;;;;;4979547;28;19945;-85
2022/01/19 12:07:30;;;;;;;;;;;5.80;77.30;;;;;;4986590;28;19924;-85
2022/01/19 12:09:56;;;;;;;;;;;6.00;76.70;;;;;;4996698;28;19921;-85
2022/01/19 12:12:25;;;;;;;;;;;5.90;76.70;;;;;;4995419;28;20409;-84
2022/01/19 12:14:52;;;;;;;;;;;5.80;76.60;;;;;;4995340;28;19992;-85
2022/01/19 12:17:26;;;;;;;;;;;5.90;75.90;;;;;;4996417;28;20594;-84
2022/01/19 12:19:52;;;;;;;;;;;5.90;76.60;;;;;;4988230;28;19914;-82
2022/01/19 12:22:29;;;;;;;;;;;5.90;76.60;;;;;;4995493;28;20495;-83
2022/01/19 12:24:58;;;;;;;;;;;5.90;76.90;;;;;;4997835;28;19922;-83
2022/01/19 12:27:26;;;;;;;;;;;5.90;76.20;;;;;;5012756;28;19929;-83
2022/01/19 12:30:05;;;;;;;;;;;5.80;76.10;;;;;;4998839;28;19921;-84
2022/01/19 12:32:32;;;;;;;;;;;5.60;77.20;;;;;;4997200;28;19940;-83
2022/01/19 12:35:11;;;;;;;;;;;5.50;77.20;;;;;;5001632;28;20347;-83
2022/01/19 12:37:36;;;;;;;;;;;5.60;77.00;;;;;;4998142;28;19918;-84
2022/01/19 12:40:17;;;;;;;;;;;5.50;77.20;;;;;;5001106;28;19925;-85
2022/01/19 12:42:44;;;;;;;;;;;5.40;77.50;;;;;;5005022;28;19933;-86
2022/01/19 12:45:19;;;;;;;;;;;5.40;77.70;;;;;;4995413;28;19918;-86
2022/01/19 12:47:55;;;;;;;;;;;5.40;77.60;;;;;;4997018;28;19925;-85
2022/01/19 12:50:32;;;;;;;;;;;5.40;77.60;;;;;;5022967;28;19913;-85
2022/01/19 12:53:13;;;;;;;;;;;5.50;78.30;;;;;;4997682;28;19914;-86
2022/01/19 12:55:40;;;;;;;;;;;5.50;78.00;;;;;;5003246;28;19918;-86
2022/01/19 12:58:31;;;;;;;;;;;5.40;78.20;;;;;;4990989;28;19918;-85
2022/01/19 13:01:10;;;;;;;;;;;5.60;77.80;;;;;;5013927;28;19910;-85
2022/01/19 13:03:46;;;;;;;;;;;5.50;77.60;;;;;;4998407;28;19941;-86
2022/01/19 13:06:17;;;;;;;;;;;5.50;77.90;;;;;;5002070;28;20108;-86
2022/01/19 13:09:06;;;;;;;;;;;5.60;77.60;;;;;;5014827;28;19984;-85
2022/01/19 13:11:38;;;;;;;;;;;5.60;77.60;;;;;;4995438;28;19924;-84
2022/01/19 13:14:05;;;;;;;;;;;5.60;77.60;;;;;;4996802;28;20008;-85
2022/01/19 13:16:32;;;;;;;;;;;5.60;77.80;;;;;;4996172;28;19945;-85
2022/01/19 13:19:09;;;;;;;;;;;5.60;77.50;;;;;;4996019;28;19960;-85
2022/01/19 13:21:36;;;;;;;;;;;5.50;77.60;;;;;;4997297;28;19917;-86
2022/01/19 13:24:13;;;;;;;;;;;5.50;77.90;;;;;;5010527;28;20025;-85
2022/01/19 13:26:41;;;;;;;;;;;5.50;77.70;;;;;;5014645;28;19916;-85
2022/01/19 13:29:14;;;;;;;;;;;5.50;78.00;;;;;;5008414;28;20289;-86
2022/01/19 13:31:39;;;;;;;;;;;5.60;77.50;;;;;;4994675;28;20412;-85
2022/01/19 13:34:05;;;;;;;;;;;5.40;77.60;;;;;;4997687;28;19959;-84
2022/01/19 13:36:32;;;;;;;;;;;5.40;77.90;;;;;;4996063;28;20016;-85
2022/01/19 13:38:58;;;;;;;;;;;5.40;77.90;;;;;;4998463;28;20296;-85
2022/01/19 13:41:24;;;;;;;;;;;5.40;78.00;;;;;;5001291;28;19921;-85
2022/01/19 13:43:50;;;;;;;;;;;5.40;78.20;;;;;;5003771;28;19918;-85
2022/01/19 13:46:24;;;;;;;;;;;5.40;78.50;;;;;;5002685;28;19916;-85
2022/01/19 13:48:55;;;;;;;;;;;5.40;78.50;;;;;;4997159;28;19972;-86
2022/01/19 13:51:22;;;;;;;;;;;5.40;78.00;;;;;;5016558;28;19910;-86
2022/01/19 13:53:50;;;;;;;;;;;5.50;78.30;;;;;;5011755;28;19949;-85
2022/01/19 13:56:35;;;;;;;;;;;5.40;78.50;;;;;;5000538;28;19941;-85
2022/01/19 13:59:06;;;;;;;;;;;5.40;78.80;;;;;;4999540;28;19921;-87
2022/01/19 14:01:34;;;;;;;;;;;5.30;78.90;;;;;;5012979;28;20000;-86
2022/01/19 14:04:07;;;;;;;;;;;5.40;79.10;;;;;;5002360;28;19987;-85
2022/01/19 14:06:38;;;;;;;;;;;5.40;79.30;;;;;;5001838;28;19918;-85
2022/01/19 14:09:04;;;;;;;;;;;5.30;79.30;;;;;;4997448;28;20011;-84
2022/01/19 14:11:29;;;;;;;;;;;5.30;79.40;;;;;;5015857;28;19914;-85
2022/01/19 14:13:59;;;;;;;;;;;5.30;79.40;;;;;;4996121;28;19913;-83
2022/01/19 14:16:26;;;;;;;;;;;5.30;79.40;;;;;;4995346;28;19924;-84
2022/01/19 14:19:05;;;;;;;;;;;5.30;79.70;;;;;;4995129;28;19985;-84
2022/01/19 14:21:31;;;;;;;;;;;5.40;79.40;;;;;;4996727;28;19956;-85
2022/01/19 14:23:58;;;;;;;;;;;5.40;79.50;;;;;;4999307;28;19914;-85
2022/01/19 14:26:24;;;;;;;;;;;5.40;79.60;;;;;;5013530;28;19973;-85
2022/01/19 14:29:08;;;;;;;;;;;5.30;79.90;;;;;;5001514;28;19925;-85
2022/01/19 14:31:33;;;;;;;;;;;5.20;80.30;;;;;;5025906;28;19906;-84
2022/01/19 14:33:59;;;;;;;;;;;5.20;80.60;;;;;;5001081;28;19921;-86
2022/01/19 14:36:24;;;;;;;;;;;5.20;80.80;;;;;;5005983;28;19973;-81
2022/01/19 14:38:55;;;;;;;;;;;5.10;80.70;;;;;;4998153;28;19914;-83
2022/01/19 14:41:26;;;;;;;;;;;5.20;80.70;;;;;;4997265;28;19944;-82
2022/01/19 14:43:59;;;;;;;;;;;5.10;80.90;;;;;;4994120;28;19941;-83
2022/01/19 14:46:40;;;;;;;;;;;5.20;81.10;;;;;;4993451;28;19963;-83
2022/01/19 14:49:05;;;;;;;;;;;5.30;80.80;;;;;;5004884;28;19937;-81
2022/01/19 14:51:32;;;;;;;;;;;5.10;80.90;;;;;;4993661;28;20026;-82
2022/01/19 14:53:58;;;;;;;;;;;5.20;80.90;;;;;;4997336;28;19914;-80
2022/01/19 14:56:24;;;;;;;;;;;5.10;81.00;;;;;;5012596;28;19986;-82
2022/01/19 14:59:10;;;;;;;;;;;5.10;81.40;;;;;;5020431;28;20265;-85
2022/01/19 15:01:37;;;;;;;;;;;5.10;81.40;;;;;;4996603;28;19941;-86
2022/01/19 15:04:03;;;;;;;;;;;5.10;81.40;;;;;;4999115;28;19914;-84
2022/01/19 15:06:29;;;;;;;;;;;5.00;82.00;;;;;;4991920;28;19918;-84
2022/01/19 15:08:54;;;;;;;;;;;5.10;81.70;;;;;;5009337;28;20052;-85
2022/01/19 15:11:21;;;;;;;;;;;5.10;81.90;;;;;;4988836;28;20288;-83
2022/01/19 15:13:47;;;;;;;;;;;5.10;82.40;;;;;;4997274;28;20002;-85
2022/01/19 15:16:13;;;;;;;;;;;5.10;82.90;;;;;;4996665;28;20246;-84
2022/01/19 15:18:38;;;;;;;;;;;5.10;83.70;;;;;;4991577;28;19913;-82
2022/01/19 15:21:04;;;;;;;;;;;5.00;84.60;;;;;;5003437;28;20501;-84
2022/01/19 15:23:29;;;;;;;;;;;5.00;85.50;;;;;;4993860;28;20408;-84
2022/01/19 15:25:57;;;;;;;;;;;4.90;85.60;;;;;;4994776;28;20557;-84
2022/01/19 15:28:23;;;;;;;;;;;4.90;86.00;;;;;;4993631;28;20302;-87
2022/01/19 15:30:50;;;;;;;;;;;4.80;86.10;;;;;;4997481;28;19945;-86
2022/01/19 15:33:16;;;;;;;;;;;4.80;86.70;;;;;;5011661;28;19914;-86
2022/01/19 15:35:42;;;;;;;;;;;4.70;87.20;;;;;;4995397;28;19918;-86
2022/01/19 15:38:07;;;;;;;;;;;4.70;87.70;;;;;;4997955;28;19921;-86
2022/01/19 15:40:34;;;;;;;;;;;4.80;87.70;;;;;;5005668;28;19924;-86
2022/01/19 15:43:00;;;;;;;;;;;4.60;88.10;;;;;;5010798;28;19910;-85
2022/01/19 15:45:25;;;;;;;;;;;4.60;88.40;;;;;;5022428;28;19914;-85
2022/01/19 15:47:51;;;;;;;;;;;4.60;88.60;;;;;;5008258;28;19981;-84
2022/01/19 15:50:17;;;;;;;;;;;4.60;88.80;;;;;;5006566;28;19917;-85
2022/01/19 15:52:43;;;;;;;;;;;4.70;88.80;;;;;;5010491;28;19917;-86
2022/01/19 15:55:09;;;;;;;;;;;4.60;88.70;;;;;;5006378;28;19918;-86
2022/01/19 15:57:35;;;;;;;;;;;4.60;88.80;;;;;;5008031;28;19933;-84
2022/01/19 16:00:01;;;;;;;;;;;4.50;88.60;;;;;;5009236;28;19913;-85
2022/01/19 16:02:26;;;;;;;;;;;4.60;88.80;;;;;;4998331;28;19937;-84
2022/01/19 16:04:52;;;;;;;;;;;4.60;88.70;;;;;;5021951;28;20218;-85
2022/01/19 16:07:18;;;;;;;;;;;4.50;89.00;;;;;;5002775;28;19918;-85
2022/01/19 16:09:43;;;;;;;;;;;4.60;89.40;;;;;;5011812;28;20344;-85
2022/01/19 16:12:09;;;;;;;;;;;4.60;88.90;;;;;;5010789;28;19913;-83
2022/01/19 16:14:35;;;;;;;;;;;4.60;89.10;;;;;;4995147;28;19917;-85
2022/01/19 16:17:00;;;;;;;;;;;4.60;89.20;;;;;;4994001;28;19920;-85
2022/01/19 16:19:26;;;;;;;;;;;4.60;89.10;;;;;;4991241;28;19920;-86
2022/01/19 16:21:52;;;;;;;;;;;4.50;89.20;;;;;;4992041;28;19922;-85
2022/01/19 16:27:02;;;;;;;;;;;4.60;89.80;;;;;;4992937;28;20384;-85
2022/01/19 16:29:28;;;;;;;;;;;4.60;89.50;;;;;;4994876;28;19915;-85
2022/01/19 16:31:57;;;;;;;;;;;4.60;89.00;;;;;;5007621;28;19956;-83
2022/01/19 16:34:23;;;;;;;;;;;4.60;89.10;;;;;;5013005;28;19918;-85
2022/01/19 16:36:49;;;;;;;;;;;4.60;89.30;;;;;;5002654;28;19918;-85
2022/01/19 16:39:16;;;;;;;;;;;4.60;89.20;;;;;;4993669;28;19922;-84
2022/01/19 16:41:44;;;;;;;;;;;4.60;89.40;;;;;;4991310;28;20377;-85
2022/01/19 16:44:10;;;;;;;;;;;4.60;89.20;;;;;;4997353;28;19941;-85
2022/01/19 16:46:38;;;;;;;;;;;4.70;88.90;;;;;;5131987;22;19929;-80
2022/01/19 16:49:05;;;;;;;;;;;4.80;88.90;;;;;;5013920;28;19935;-81
2022/01/19 16:51:32;;;;;;;;;;;4.70;88.60;;;;;;5009598;28;19914;-81
2022/01/19 16:53:57;;;;;;;;;;;4.70;88.80;;;;;;5020273;28;19921;-80
2022/01/19 16:56:23;;;;;;;;;;;4.70;88.80;;;;;;5031617;28;19917;-80